createdAt,value
2017-10-28T00:00:40.953Z,101556.72
2017-10-28T00:03:08.545Z,101559.39
2017-10-28T00:05:36.440Z,101555.17
2017-10-28T00:08:04.025Z,101549.83
2017-10-28T00:10:31.613Z,101548.00
2017-10-28T00:12:59.219Z,101545.91
2017-10-28T00:15:26.810Z,101543.46
2017-10-28T00:17:55.171Z,101536.32
2017-10-28T00:20:22.764Z,101543.95
2017-10-28T00:22:50.360Z,101534.05
2017-10-28T00:25:17.977Z,101526.65
2017-10-28T00:27:45.562Z,101526.80
2017-10-28T00:30:18.879Z,101523.69
2017-10-28T00:32:52.414Z,101513.92
2017-10-28T00:35:25.717Z,101513.77
2017-10-28T00:37:53.299Z,101503.44
2017-10-28T00:40:20.897Z,101495.95
2017-10-28T00:42:48.496Z,101497.45
2017-10-28T00:45:16.134Z,101494.66
2017-10-28T00:47:43.760Z,101473.31
2017-10-28T00:50:11.356Z,101479.98
2017-10-28T00:52:38.932Z,101470.72
2017-10-28T00:55:07.008Z,101460.12
2017-10-28T00:57:34.608Z,101451.31
2017-10-28T01:00:02.230Z,101449.03
2017-10-28T01:02:29.846Z,101440.91
2017-10-28T01:04:57.448Z,101436.72
2017-10-28T01:07:25.061Z,101434.70
2017-10-28T01:09:52.646Z,101433.05
2017-10-28T01:12:20.286Z,101416.13
2017-10-28T01:14:47.884Z,101414.48
2017-10-28T01:17:15.489Z,101410.19
2017-10-28T01:19:43.437Z,101417.80
2017-10-28T01:22:11.046Z,101406.55
2017-10-28T01:24:38.684Z,101406.57
2017-10-28T01:27:06.287Z,101400.01
2017-10-28T01:29:34.299Z,101410.34
2017-10-28T01:32:01.911Z,101407.78
2017-10-28T01:34:29.499Z,101401.41
2017-10-28T01:36:57.130Z,101395.84
2017-10-28T01:39:24.725Z,101391.67
2017-10-28T01:41:52.330Z,101385.02
2017-10-28T01:44:19.949Z,101375.86
2017-10-28T01:46:47.528Z,101373.25
2017-10-28T01:49:15.424Z,101370.33
2017-10-28T01:51:43.014Z,101367.38
2017-10-28T01:54:10.631Z,101357.92
2017-10-28T01:56:38.737Z,101360.06
2017-10-28T01:59:06.322Z,101353.39
2017-10-28T02:01:33.950Z,101356.23
2017-10-28T02:04:01.548Z,101352.96
2017-10-28T02:06:29.174Z,101345.83
2017-10-28T02:08:56.798Z,101341.86
2017-10-28T02:11:24.387Z,101346.62
2017-10-28T02:13:52.033Z,101344.52
2017-10-28T02:16:19.685Z,101361.70
2017-10-28T02:18:47.560Z,101339.66
2017-10-28T02:21:15.531Z,101330.89
2017-10-28T02:23:43.396Z,101321.79
2017-10-28T02:26:11.026Z,101315.96
2017-10-28T02:28:38.926Z,101315.75
2017-10-28T02:31:06.508Z,101307.67
2017-10-28T02:33:34.132Z,101299.83
2017-10-28T02:36:01.740Z,101298.09
2017-10-28T02:38:29.356Z,101299.59
2017-10-28T02:40:56.969Z,101280.66
2017-10-28T02:43:24.803Z,101280.98
2017-10-28T02:45:52.458Z,101276.80
2017-10-28T02:48:20.053Z,101270.78
2017-10-28T02:50:47.690Z,101275.12
2017-10-28T02:53:15.269Z,101274.05
2017-10-28T02:55:42.878Z,101263.87
2017-10-28T02:58:10.490Z,101257.98
2017-10-28T03:00:38.446Z,101260.64
2017-10-28T03:03:06.064Z,101262.70
2017-10-28T03:05:33.694Z,101252.70
2017-10-28T03:08:01.284Z,101240.47
2017-10-28T03:10:28.898Z,101242.64
2017-10-28T03:12:56.482Z,101240.70
2017-10-28T03:15:24.065Z,101239.50
2017-10-28T03:17:51.678Z,101233.31
2017-10-28T03:20:19.261Z,101238.75
2017-10-28T03:22:47.076Z,101229.77
2017-10-28T03:25:14.701Z,101231.59
2017-10-28T03:27:42.297Z,101223.59
2017-10-28T03:30:09.899Z,101220.33
2017-10-28T03:32:37.866Z,101225.28
2017-10-28T03:35:05.464Z,101227.34
2017-10-28T03:37:33.083Z,101226.38
2017-10-28T03:40:00.668Z,101227.64
2017-10-28T03:42:28.264Z,101212.83
2017-10-28T03:44:55.877Z,101202.78
2017-10-28T03:47:23.453Z,101207.80
2017-10-28T03:49:51.146Z,101198.13
2017-10-28T03:52:18.739Z,101195.89
2017-10-28T03:54:46.337Z,101199.34
2017-10-28T03:57:14.287Z,101189.41
2017-10-28T03:59:41.954Z,101193.93
2017-10-28T04:02:09.579Z,101191.77
2017-10-28T04:04:37.184Z,101193.52
2017-10-28T04:07:04.756Z,101180.50
2017-10-28T04:09:32.377Z,101177.65
2017-10-28T04:12:00.032Z,101173.08
2017-10-28T04:14:27.935Z,101170.94
2017-10-28T04:16:55.525Z,101171.14
2017-10-28T04:19:23.116Z,101169.66
2017-10-28T04:21:50.724Z,101162.11
2017-10-28T04:24:18.344Z,101159.59
2017-10-28T04:26:46.245Z,101162.16
2017-10-28T04:29:13.833Z,101152.86
2017-10-28T04:31:41.421Z,101142.95
2017-10-28T04:34:09.038Z,101136.86
2017-10-28T04:36:36.628Z,101134.45
2017-10-28T04:39:04.569Z,101117.63
2017-10-28T04:41:32.162Z,101126.86
2017-10-28T04:43:59.745Z,101121.56
2017-10-28T04:46:27.404Z,101105.97
2017-10-28T04:48:55.311Z,101109.39
2017-10-28T04:51:22.928Z,101099.31
2017-10-28T04:53:50.508Z,101089.48
2017-10-28T04:56:18.107Z,101096.32
2017-10-28T04:58:46.076Z,101092.39
2017-10-28T05:01:13.657Z,101086.39
2017-10-28T05:03:41.281Z,101079.98
2017-10-28T05:06:08.869Z,101080.41
2017-10-28T05:08:36.450Z,101069.41
2017-10-28T05:11:04.081Z,101063.98
2017-10-28T05:13:31.659Z,101059.19
2017-10-28T05:15:59.298Z,101047.81
2017-10-28T05:18:26.881Z,101032.25
2017-10-28T05:20:54.478Z,101024.73
2017-10-28T05:23:22.113Z,101031.91
2017-10-28T05:25:49.716Z,101025.92
2017-10-28T05:28:17.346Z,101023.92
2017-10-28T05:30:44.925Z,101016.91
2017-10-28T05:33:12.520Z,101014.66
2017-10-28T05:35:40.404Z,101023.42
2017-10-28T05:38:07.990Z,101015.58
2017-10-28T05:40:35.611Z,101022.66
2017-10-28T05:43:03.193Z,101015.36
2017-10-28T05:45:30.789Z,101008.06
2017-10-28T05:47:58.716Z,100999.56
2017-10-28T05:50:26.368Z,100998.66
2017-10-28T05:52:54.162Z,100995.56
2017-10-28T05:55:21.754Z,101002.08
2017-10-28T05:57:49.351Z,100998.06
2017-10-28T06:00:16.973Z,100993.25
2017-10-28T06:02:44.617Z,100978.11
2017-10-28T06:05:12.237Z,100965.16
2017-10-28T06:07:39.833Z,100970.50
2017-10-28T06:10:07.890Z,100967.50
2017-10-28T06:12:35.860Z,100967.75
2017-10-28T06:15:03.453Z,100961.94
2017-10-28T06:17:31.069Z,100957.88
2017-10-28T06:19:58.954Z,100964.78
2017-10-28T06:22:26.528Z,100964.70
2017-10-28T06:24:54.161Z,100976.27
2017-10-28T06:27:21.749Z,100963.84
2017-10-28T06:29:49.373Z,100968.59
2017-10-28T06:32:16.974Z,100962.69
2017-10-28T06:34:44.563Z,100971.91
2017-10-28T06:37:12.189Z,100978.94
2017-10-28T06:39:40.054Z,100978.34
2017-10-28T06:42:07.685Z,100963.48
2017-10-28T06:44:35.270Z,100958.41
2017-10-28T06:47:02.864Z,100926.93
2017-10-28T06:49:30.731Z,100927.44
2017-10-28T06:51:58.593Z,100906.67
2017-10-28T06:54:26.221Z,100906.58
2017-10-28T06:56:53.806Z,100905.59
2017-10-28T06:59:21.403Z,100911.52
2017-10-28T07:01:49.038Z,100912.70
2017-10-28T07:04:16.899Z,100914.09
2017-10-28T07:06:44.517Z,100901.02
2017-10-28T07:09:12.125Z,100906.48
2017-10-28T07:11:39.993Z,100898.63
2017-10-28T07:14:07.959Z,100905.02
2017-10-28T07:16:35.565Z,100903.75
2017-10-28T07:19:03.223Z,100902.33
2017-10-28T07:21:30.816Z,100890.80
2017-10-28T07:23:59.026Z,100899.22
2017-10-28T07:26:26.643Z,100886.73
2017-10-28T07:28:54.249Z,100877.33
2017-10-28T07:31:21.895Z,100880.82
2017-10-28T07:33:49.735Z,100877.21
2017-10-28T07:36:17.334Z,100867.17
2017-10-28T07:38:44.958Z,100874.58
2017-10-28T07:41:12.552Z,100850.98
2017-10-28T07:43:40.528Z,100848.79
2017-10-28T07:46:08.119Z,100841.66
2017-10-28T07:48:35.702Z,100846.96
2017-10-28T07:51:03.324Z,100842.20
2017-10-28T07:53:30.922Z,100836.29
2017-10-28T07:55:58.850Z,100826.87
2017-10-28T07:58:26.441Z,100796.03
2017-10-28T08:00:54.876Z,100799.70
2017-10-28T08:03:22.490Z,100807.31
2017-10-28T08:05:50.082Z,100804.61
2017-10-28T08:08:17.736Z,100790.14
2017-10-28T08:10:45.326Z,100804.05
2017-10-28T08:13:13.044Z,100793.23
2017-10-28T08:15:40.671Z,100798.77
2017-10-28T08:18:08.309Z,100781.23
2017-10-28T08:20:35.962Z,100784.89
2017-10-28T08:23:03.584Z,100793.94
2017-10-28T08:25:31.200Z,100801.61
2017-10-28T08:27:58.856Z,100799.03
2017-10-28T08:30:26.518Z,100801.06
2017-10-28T08:32:54.225Z,100786.44
2017-10-28T08:35:21.830Z,100766.80
2017-10-28T08:37:49.433Z,100767.92
2017-10-28T08:40:17.068Z,100769.30
2017-10-28T08:42:44.675Z,100759.87
2017-10-28T08:45:12.318Z,100765.36
2017-10-28T08:47:39.958Z,100756.88
2017-10-28T08:50:07.549Z,100752.00
2017-10-28T08:52:35.501Z,100734.70
2017-10-28T08:55:03.101Z,100737.70
2017-10-28T08:57:30.730Z,100731.23
2017-10-28T08:59:58.363Z,100746.27
2017-10-28T09:02:25.960Z,100741.66
2017-10-28T09:04:53.577Z,100730.89
2017-10-28T09:07:21.161Z,100710.48
2017-10-28T09:09:49.142Z,100707.36
2017-10-28T09:12:17.009Z,100703.44
2017-10-28T09:14:44.609Z,100699.22
2017-10-28T09:17:12.231Z,100681.70
2017-10-28T09:19:39.836Z,100689.06
2017-10-28T09:22:07.512Z,100672.42
2017-10-28T09:24:35.433Z,100675.91
2017-10-28T09:27:03.041Z,100664.16
2017-10-28T09:29:30.677Z,100672.51
2017-10-28T09:31:58.297Z,100664.42
2017-10-28T09:34:25.946Z,100663.66
2017-10-28T09:36:53.569Z,100663.83
2017-10-28T09:39:21.188Z,100660.92
2017-10-28T09:41:49.175Z,100653.22
2017-10-28T09:44:16.763Z,100659.41
2017-10-28T09:46:44.495Z,100638.31
2017-10-28T09:49:12.470Z,100621.67
2017-10-28T09:51:40.338Z,100612.67
2017-10-28T09:54:07.977Z,100597.81
2017-10-28T09:56:35.569Z,100604.33
2017-10-28T09:59:03.545Z,100593.84
2017-10-28T10:01:31.151Z,100594.91
2017-10-28T10:03:58.751Z,100596.30
2017-10-28T10:06:26.735Z,100597.34
2017-10-28T10:08:54.311Z,100615.00
2017-10-28T10:11:21.968Z,100607.41
2017-10-28T10:13:49.922Z,100600.10
2017-10-28T10:16:17.513Z,100604.73
2017-10-28T10:18:45.142Z,100606.50
2017-10-28T10:21:12.773Z,100600.16
2017-10-28T10:23:40.399Z,100596.72
2017-10-28T10:26:08.346Z,100596.09
2017-10-28T10:28:35.949Z,100589.42
2017-10-28T10:31:03.672Z,100578.15
2017-10-28T10:33:31.277Z,100567.88
2017-10-28T10:35:58.897Z,100573.38
2017-10-28T10:38:26.561Z,100559.44
2017-10-28T10:40:54.143Z,100579.25
2017-10-28T10:43:21.731Z,100560.39
2017-10-28T10:45:49.365Z,100541.73
2017-10-28T10:48:16.993Z,100530.16
2017-10-28T10:50:45.474Z,100542.28
2017-10-28T10:53:13.101Z,100523.16
2017-10-28T10:55:40.692Z,100523.66
2017-10-28T10:58:08.674Z,100522.50
2017-10-28T11:00:36.265Z,100517.58
2017-10-28T11:03:04.361Z,100517.08
2017-10-28T11:05:32.021Z,100498.27
2017-10-28T11:07:59.606Z,100507.81
2017-10-28T11:10:27.248Z,100495.42
2017-10-28T11:12:54.882Z,100498.82
2017-10-28T11:15:22.854Z,100490.10
2017-10-28T11:17:50.448Z,100488.77
2017-10-28T11:20:18.400Z,100487.69
2017-10-28T11:22:46.017Z,100472.98
2017-10-28T11:25:13.613Z,100471.07
2017-10-28T11:27:41.257Z,100483.78
2017-10-28T11:30:08.861Z,100463.26
2017-10-28T11:32:36.473Z,100463.07
2017-10-28T11:35:04.105Z,100457.36
2017-10-28T11:37:31.700Z,100453.58
2017-10-28T11:39:59.362Z,100451.33
2017-10-28T11:42:26.962Z,100462.23
2017-10-28T11:44:54.597Z,100451.70
2017-10-28T11:47:22.560Z,100444.37
2017-10-28T11:49:50.221Z,100436.16
2017-10-28T11:52:17.863Z,100430.82
2017-10-28T11:54:45.469Z,100435.06
2017-10-28T11:57:13.096Z,100419.53
2017-10-28T11:59:40.723Z,100416.63
2017-10-28T12:02:08.330Z,100404.36
2017-10-28T12:04:35.992Z,100403.57
2017-10-28T12:07:03.595Z,100392.56
2017-10-28T12:09:31.213Z,100381.75
2017-10-28T12:11:58.886Z,100383.63
2017-10-28T12:14:26.514Z,100376.20
2017-10-28T12:16:54.242Z,100368.09
2017-10-28T12:19:21.912Z,100370.72
2017-10-28T12:21:49.517Z,100361.81
2017-10-28T12:24:17.215Z,100361.44
2017-10-28T12:26:44.937Z,100347.17
2017-10-28T12:29:12.675Z,100329.54
2017-10-28T12:31:40.368Z,100322.88
2017-10-28T12:34:08.014Z,100328.63
2017-10-28T12:36:35.648Z,100321.36
2017-10-28T12:39:03.243Z,100328.55
2017-10-28T12:41:31.138Z,100316.32
2017-10-28T12:43:58.755Z,100303.17
2017-10-28T12:46:26.368Z,100299.42
2017-10-28T12:48:54.248Z,100288.89
2017-10-28T12:51:21.845Z,100278.27
2017-10-28T12:53:49.644Z,100281.06
2017-10-28T12:56:17.242Z,100289.62
2017-10-28T12:58:44.833Z,100288.16
2017-10-28T13:01:12.465Z,100283.38
2017-10-28T13:03:40.050Z,100279.47
2017-10-28T13:06:07.794Z,100303.47
2017-10-28T13:08:35.395Z,100280.61
2017-10-28T13:11:03.322Z,100291.91
2017-10-28T13:13:31.249Z,100294.37
2017-10-28T13:15:58.841Z,100284.34
2017-10-28T13:18:26.519Z,100282.84
2017-10-28T13:20:54.119Z,100294.27
2017-10-28T13:23:21.722Z,100278.77
2017-10-28T13:25:49.354Z,100273.57
2017-10-28T13:28:17.000Z,100260.81
2017-10-28T13:30:44.672Z,100253.63
2017-10-28T13:33:12.279Z,100246.06
2017-10-28T13:35:39.879Z,100250.52
2017-10-28T13:38:07.509Z,100253.34
2017-10-28T13:40:35.110Z,100253.63
2017-10-28T13:43:02.753Z,100243.98
2017-10-28T13:45:30.343Z,100241.34
2017-10-28T13:47:57.986Z,100230.50
2017-10-28T13:50:26.001Z,100230.91
2017-10-28T13:52:53.594Z,100222.42
2017-10-28T13:55:21.229Z,100215.52
2017-10-28T13:57:48.839Z,100206.55
2017-10-28T14:00:16.770Z,100207.82
2017-10-28T14:02:44.446Z,100204.32
2017-10-28T14:05:12.084Z,100197.73
2017-10-28T14:07:39.738Z,100200.72
2017-10-28T14:10:07.401Z,100189.53
2017-10-28T14:12:35.022Z,100189.50
2017-10-28T14:15:02.678Z,100173.81
2017-10-28T14:17:30.288Z,100168.34
2017-10-28T14:19:57.917Z,100171.75
2017-10-28T14:22:25.509Z,100162.30
2017-10-28T14:24:53.109Z,100157.62
2017-10-28T14:27:20.806Z,100156.73
2017-10-28T14:29:48.421Z,100169.77
2017-10-28T14:32:16.073Z,100160.55
2017-10-28T14:34:43.751Z,100162.56
2017-10-28T14:37:11.344Z,100144.65
2017-10-28T14:39:38.986Z,100153.52
2017-10-28T14:42:06.587Z,100152.02
2017-10-28T14:44:34.221Z,100152.91
2017-10-28T14:47:01.817Z,100156.44
2017-10-28T14:49:29.412Z,100148.13
2017-10-28T14:51:57.037Z,100165.03
2017-10-28T14:54:24.645Z,100150.05
2017-10-28T14:56:52.306Z,100136.56
2017-10-28T14:59:19.910Z,100135.03
2017-10-28T15:01:47.593Z,100139.43
2017-10-28T15:04:15.496Z,100142.35
2017-10-28T15:06:43.086Z,100135.11
2017-10-28T15:09:10.729Z,100135.84
2017-10-28T15:11:38.342Z,100128.99
2017-10-28T15:14:05.978Z,100138.53
2017-10-28T15:16:33.592Z,100123.79
2017-10-28T15:19:01.203Z,100119.18
2017-10-28T15:21:28.838Z,100116.09
2017-10-28T15:23:56.441Z,100131.97
2017-10-28T15:26:24.029Z,100124.24
2017-10-28T15:28:51.654Z,100116.03
2017-10-28T15:31:19.250Z,100121.73
2017-10-28T15:33:46.868Z,100132.38
2017-10-28T15:36:14.466Z,100110.73
2017-10-28T15:38:42.183Z,100123.30
2017-10-28T15:41:09.807Z,100133.88
2017-10-28T15:43:37.417Z,100117.16
2017-10-28T15:46:05.052Z,100117.85
2017-10-28T15:48:32.688Z,100103.60
2017-10-28T15:51:00.294Z,100117.52
2017-10-28T15:53:27.948Z,100101.28
2017-10-28T15:55:55.607Z,100094.25
2017-10-28T15:58:24.161Z,100072.72
2017-10-28T16:00:51.764Z,100075.55
2017-10-28T16:03:19.345Z,100082.45
2017-10-28T16:05:47.003Z,100073.84
2017-10-28T16:08:14.681Z,100071.87
2017-10-28T16:10:42.373Z,100074.53
2017-10-28T16:13:10.043Z,100080.61
2017-10-28T16:15:38.351Z,100076.70
2017-10-28T16:18:06.115Z,100072.01
2017-10-28T16:20:33.945Z,100071.47
2017-10-28T16:23:01.729Z,100079.33
2017-10-28T16:25:29.685Z,100074.20
2017-10-28T16:27:57.372Z,100069.86
2017-10-28T16:30:25.111Z,100070.14
2017-10-28T16:32:52.836Z,100080.66
2017-10-28T16:35:20.537Z,100066.42
2017-10-28T16:37:48.170Z,100073.48
2017-10-28T16:40:15.846Z,100064.52
2017-10-28T16:42:43.528Z,100051.36
2017-10-28T16:45:11.486Z,100048.72
2017-10-28T16:47:39.322Z,100047.09
2017-10-28T16:50:07.115Z,100032.53
2017-10-28T16:52:34.877Z,100026.08
2017-10-28T16:55:02.522Z,100032.05
2017-10-28T16:57:30.194Z,100021.70
2017-10-28T16:59:57.904Z,100016.50
2017-10-28T17:02:25.570Z,100025.22
2017-10-28T17:04:53.180Z,100024.51
2017-10-28T17:07:21.184Z,100024.42
2017-10-28T17:09:49.011Z,100020.59
2017-10-28T17:12:16.654Z,100016.83
2017-10-28T17:14:44.404Z,100004.48
2017-10-28T17:17:11.993Z,100009.23
2017-10-28T17:19:39.617Z,100004.89
2017-10-28T17:22:07.318Z,100001.48
2017-10-28T17:24:34.932Z,100001.30
2017-10-28T17:27:02.529Z,100012.92
2017-10-28T17:29:30.161Z,99988.05
2017-10-28T17:31:57.769Z,99986.71
2017-10-28T17:34:25.381Z,99987.03
2017-10-28T17:36:53.034Z,99977.77
2017-10-28T17:39:20.951Z,99977.45
2017-10-28T17:41:48.585Z,99981.89
2017-10-28T17:44:17.109Z,99973.45
2017-10-28T17:46:44.848Z,99970.17
2017-10-28T17:49:12.491Z,99966.69
2017-10-28T17:51:40.129Z,99967.41
2017-10-28T17:54:07.785Z,99968.23
2017-10-28T17:56:35.397Z,99968.23
2017-10-28T17:59:02.997Z,99966.08
2017-10-28T18:01:30.629Z,99961.14
2017-10-28T18:03:58.232Z,99955.30
2017-10-28T18:06:25.876Z,99954.80
2017-10-28T18:08:53.506Z,99934.54
2017-10-28T18:11:21.155Z,99939.08
2017-10-28T18:13:48.779Z,99927.25
2017-10-28T18:16:16.379Z,99923.34
2017-10-28T18:18:44.151Z,99915.11
2017-10-28T18:21:11.779Z,99910.08
2017-10-28T18:23:39.692Z,99909.36
2017-10-28T18:26:07.371Z,99904.11
2017-10-28T18:28:34.974Z,99900.10
2017-10-28T18:31:02.646Z,99906.77
2017-10-28T18:33:30.547Z,99909.76
2017-10-28T18:35:58.166Z,99909.95
2017-10-28T18:38:26.087Z,99906.44
2017-10-28T18:40:53.696Z,99900.49
2017-10-28T18:43:21.329Z,99894.55
2017-10-28T18:45:48.937Z,99889.31
2017-10-28T18:48:16.542Z,99891.34
2017-10-28T18:50:44.192Z,99878.41
2017-10-28T18:53:11.776Z,99873.97
2017-10-28T18:55:39.435Z,99870.91
2017-10-28T18:58:07.387Z,99865.13
2017-10-28T19:00:35.352Z,99860.83
2017-10-28T19:03:02.976Z,99837.20
2017-10-28T19:05:30.582Z,99839.36
2017-10-28T19:07:58.209Z,99828.05
2017-10-28T19:10:26.059Z,99818.92
2017-10-28T19:12:53.664Z,99812.44
2017-10-28T19:15:21.308Z,99803.52
2017-10-28T19:17:48.911Z,99814.20
2017-10-28T19:20:16.541Z,99795.20
2017-10-28T19:22:44.436Z,99795.52
2017-10-28T19:25:12.037Z,99787.30
2017-10-28T19:27:39.660Z,99784.23
2017-10-28T19:30:07.265Z,99779.58
2017-10-28T19:32:34.912Z,99767.98
2017-10-28T19:35:02.506Z,99765.02
2017-10-28T19:37:30.117Z,99770.05
2017-10-28T19:39:57.734Z,99762.03
2017-10-28T19:42:25.324Z,99768.80
2017-10-28T19:44:52.976Z,99749.50
2017-10-28T19:47:20.575Z,99749.69
2017-10-28T19:49:48.257Z,99739.00
2017-10-28T19:52:15.856Z,99732.53
2017-10-28T19:54:43.442Z,99727.27
2017-10-28T19:57:11.080Z,99717.00
2017-10-28T19:59:38.721Z,99707.88
2017-10-28T20:02:06.305Z,99702.74
2017-10-28T20:04:33.932Z,99691.98
2017-10-28T20:07:01.515Z,99684.90
2017-10-28T20:09:29.139Z,99681.61
2017-10-28T20:11:56.771Z,99675.95
2017-10-28T20:14:24.421Z,99665.41
2017-10-28T20:16:52.086Z,99657.41
2017-10-28T20:19:19.673Z,99652.59
2017-10-28T20:21:47.297Z,99657.09
2017-10-28T20:24:14.889Z,99641.39
2017-10-28T20:26:42.483Z,99638.64
2017-10-28T20:29:10.124Z,99620.88
2017-10-28T20:31:37.868Z,99621.61
2017-10-28T20:34:05.721Z,99612.39
2017-10-28T20:36:33.297Z,99613.92
2017-10-28T20:39:00.894Z,99604.37
2017-10-28T20:41:28.687Z,99588.00
2017-10-28T20:43:56.296Z,99581.20
2017-10-28T20:46:24.249Z,99583.98
2017-10-28T20:48:51.841Z,99579.25
2017-10-28T20:51:19.445Z,99558.42
2017-10-28T20:53:48.018Z,99552.17
2017-10-28T20:56:15.654Z,99548.19
2017-10-28T20:58:43.294Z,99537.92
2017-10-28T21:01:10.888Z,99525.61
2017-10-28T21:03:38.510Z,99524.26
2017-10-28T21:06:06.395Z,99521.79
2017-10-28T21:08:33.991Z,99505.37
2017-10-28T21:11:01.638Z,99502.70
2017-10-28T21:13:29.313Z,99489.47
2017-10-28T21:15:57.202Z,99474.80
2017-10-28T21:18:24.902Z,99463.75
2017-10-28T21:20:52.503Z,99456.46
2017-10-28T21:23:20.169Z,99445.91
2017-10-28T21:25:48.103Z,99433.48
2017-10-28T21:28:15.680Z,99430.81
2017-10-28T21:30:43.305Z,99422.41
2017-10-28T21:33:10.946Z,99411.77
2017-10-28T21:35:38.581Z,99396.79
2017-10-28T21:38:06.245Z,99386.22
2017-10-28T21:40:33.845Z,99379.05
2017-10-28T21:43:01.843Z,99379.87
2017-10-28T21:45:29.477Z,99373.91
2017-10-28T21:47:57.153Z,99359.77
2017-10-28T21:50:24.736Z,99354.13
2017-10-28T21:52:52.336Z,99340.99
2017-10-28T21:55:19.979Z,99335.45
2017-10-28T21:57:47.567Z,99320.27
2017-10-28T22:00:15.188Z,99309.47
2017-10-28T22:02:42.866Z,99310.63
2017-10-28T22:05:10.489Z,99302.39
2017-10-28T22:07:38.576Z,99287.41
2017-10-28T22:10:06.188Z,99287.31
2017-10-28T22:12:33.825Z,99294.55
2017-10-28T22:15:01.464Z,99279.06
2017-10-28T22:17:29.122Z,99270.77
2017-10-28T22:19:56.985Z,99264.39
2017-10-28T22:22:24.678Z,99250.34
2017-10-28T22:24:52.338Z,99227.42
2017-10-28T22:27:20.305Z,99221.02
2017-10-28T22:29:48.325Z,99202.17
2017-10-28T22:32:16.326Z,99202.69
2017-10-28T22:34:43.916Z,99196.48
2017-10-28T22:37:11.737Z,99184.08
2017-10-28T22:39:39.383Z,99187.66
2017-10-28T22:42:07.019Z,99170.92
2017-10-28T22:44:34.681Z,99159.73
2017-10-28T22:47:02.328Z,99146.97
2017-10-28T22:49:30.276Z,99139.97
2017-10-28T22:51:57.976Z,99129.72
2017-10-28T22:54:25.635Z,99109.55
2017-10-28T22:56:53.326Z,99108.63
2017-10-28T22:59:20.953Z,99101.75
2017-10-28T23:01:48.600Z,99080.84
2017-10-28T23:04:16.192Z,99075.10
2017-10-28T23:06:43.829Z,99055.58
2017-10-28T23:09:11.444Z,99049.11
2017-10-28T23:11:39.048Z,99033.14
2017-10-28T23:14:06.720Z,99032.50
2017-10-28T23:16:34.307Z,99018.34
2017-10-28T23:19:01.902Z,99015.23
2017-10-28T23:21:29.519Z,99006.27
2017-10-28T23:23:57.119Z,99003.95
2017-10-28T23:26:25.020Z,98984.48
2017-10-28T23:28:52.625Z,98975.77
2017-10-28T23:31:20.239Z,98982.95
2017-10-28T23:33:48.228Z,98982.73
2017-10-28T23:36:15.847Z,98954.89
2017-10-28T23:38:43.475Z,98944.66
2017-10-28T23:41:11.401Z,98936.05
2017-10-28T23:43:38.996Z,98921.85
2017-10-28T23:46:06.620Z,98899.85
2017-10-28T23:48:34.500Z,98899.79
2017-10-28T23:51:02.237Z,98878.15
2017-10-28T23:53:29.824Z,98867.77
2017-10-28T23:55:57.423Z,98860.02
2017-10-28T23:58:25.037Z,98843.94
